Time;durP1;ratioP1;P1;durP2;ratioP2;P2;SDS_P1;SDS_P2;PMS_P1;PMS_P2;Temp;Humidity;BMP_temperature;BMP_pressure;BME280_temperature;BME280_humidity;BME280_pressure;Samples;Min_cycle;Max_cycle;Signal;HPM_P1;HPM_P2
2021/12/13 00:00:33;;;;;;;4.43;2.35;;;;;;;21.03;38.06;102458.16;7314469;19;128848;-66
2021/12/13 00:03:16;;;;;;;4.18;2.10;;;;;;;21.01;38.23;102461.13;7312453;19;129153;-66
2021/12/13 00:05:59;;;;;;;6.45;2.50;;;;;;;20.99;38.24;102462.47;7316817;19;130616;-66
2021/12/13 00:08:30;;;;;;;4.53;2.55;;;;;;;20.97;38.62;102456.25;7312585;19;130482;-66
2021/12/13 00:11:06;;;;;;;3.80;2.40;;;;;;;20.96;38.26;102457.34;7314200;19;129240;-65
2021/12/13 00:13:43;;;;;;;5.60;2.35;;;;;;;20.94;38.70;102451.13;7308718;19;129034;-66
2021/12/13 00:16:12;;;;;;;3.33;2.25;;;;;;;20.93;38.47;102457.78;7312928;19;130616;-66
2021/12/13 00:18:44;;;;;;;4.47;2.20;;;;;;;20.90;38.75;102454.41;7314480;19;130923;-65
2021/12/13 00:21:22;;;;;;;3.75;2.55;;;;;;;20.89;38.29;102451.81;7306861;19;129208;-66
2021/12/13 00:24:02;;;;;;;3.70;2.50;;;;;;;20.87;38.26;102454.84;7311420;19;130046;-66
2021/12/13 00:26:37;;;;;;;3.05;2.17;;;;;;;20.86;38.79;102455.91;7309245;19;131613;-66
2021/12/13 00:29:17;;;;;;;3.88;2.08;;;;;;;20.84;38.53;102455.28;7312992;19;130576;-66
2021/12/13 00:31:50;;;;;;;4.43;2.28;;;;;;;20.82;38.68;102462.16;7314586;19;129118;-66
2021/12/13 00:34:29;;;;;;;3.28;2.20;;;;;;;20.81;38.48;102454.88;7309599;19;129109;-66
2021/12/13 00:37:03;;;;;;;3.85;2.05;;;;;;;20.80;38.30;102454.00;7309331;19;130595;-65
2021/12/13 00:39:39;;;;;;;6.40;2.65;;;;;;;20.77;38.45;102453.59;7308184;19;130713;-66
2021/12/13 00:42:07;;;;;;;4.77;2.00;;;;;;;20.74;38.38;102447.38;7306920;19;130827;-65
2021/12/13 00:44:39;;;;;;;2.40;2.00;;;;;;;20.74;38.75;102449.31;7310614;19;128988;-66
2021/12/13 00:47:19;;;;;;;4.05;2.10;;;;;;;20.72;38.39;102452.34;7307151;19;130687;-66
2021/12/13 00:49:49;;;;;;;2.55;1.60;;;;;;;20.69;38.91;102457.47;7309138;19;130619;-65
2021/12/13 00:52:18;;;;;;;2.85;2.20;;;;;;;20.69;38.91;102457.47;7309564;19;130198;-65
2021/12/13 00:54:46;;;;;;;3.00;1.90;;;;;;;20.67;38.88;102465.22;7308517;19;129573;-66
2021/12/13 00:57:38;;;;;;;3.90;2.17;;;;;;;20.67;38.53;102459.66;7310577;19;131164;-65
2021/12/13 01:00:13;;;;;;;4.05;1.98;;;;;;;20.65;38.55;102456.22;7307803;19;132194;-66
2021/12/13 01:02:51;;;;;;;4.72;2.08;;;;;;;20.63;38.93;102448.09;7306466;19;130505;-66
2021/12/13 01:05:24;;;;;;;3.63;2.10;;;;;;;20.62;38.58;102454.72;7311746;19;130649;-65
2021/12/13 01:08:21;;;;;;;4.82;2.20;;;;;;;20.62;39.00;102451.09;7305977;19;131743;-65
2021/12/13 01:10:54;;;;;;;3.00;2.17;;;;;;;20.57;38.73;102460.97;7308886;19;130858;-66
2021/12/13 01:13:35;;;;;;;2.38;1.95;;;;;;;20.57;38.58;102465.69;7309990;19;130777;-65
2021/12/13 01:25:48;;;;;;;3.28;2.28;;;;;;;20.50;39.15;102481.53;7305401;19;131111;-65
2021/12/13 01:28:20;;;;;;;2.67;1.83;;;;;;;20.48;38.72;102462.31;7312841;19;131224;-65
2021/12/13 01:30:52;;;;;;;3.03;2.28;;;;;;;20.47;38.67;102466.16;7309993;19;130662;-66
2021/12/13 01:33:25;;;;;;;3.42;2.20;;;;;;;20.47;38.67;102468.94;7315169;19;131161;-66
2021/12/13 01:35:56;;;;;;;2.63;1.77;;;;;;;20.45;38.79;102468.28;7317183;19;129872;-66
2021/12/13 01:38:35;;;;;;;3.45;2.10;;;;;;;20.45;39.03;102465.50;7316009;19;129428;-65
2021/12/13 01:41:08;;;;;;;3.08;2.03;;;;;;;20.43;38.61;102470.47;7320827;19;130867;-66
2021/12/13 01:43:40;;;;;;;4.40;2.05;;;;;;;20.42;38.94;102468.75;7316338;19;131373;-65
2021/12/13 01:46:07;;;;;;;4.22;2.42;;;;;;;20.41;39.06;102478.16;7318996;19;128882;-66
2021/12/13 01:48:38;;;;;;;2.72;2.25;;;;;;;20.40;39.04;102471.75;7317417;19;129437;-66
2021/12/13 01:51:10;;;;;;;4.50;2.22;;;;;;;20.39;38.85;102483.94;7317335;19;130492;-65
2021/12/13 01:53:43;;;;;;;3.70;2.28;;;;;;;20.38;38.93;102470.25;7320042;19;131726;-65
2021/12/13 01:56:57;;;;;;;2.85;1.80;;;;;;;20.38;38.90;102467.50;7316668;19;131263;-65
2021/12/13 02:02:24;;;;;;;3.10;1.90;;;;;;;20.34;38.94;102469.00;7319419;19;130842;-65
2021/12/13 02:05:05;;;;;;;3.75;2.00;;;;;;;20.33;38.81;102473.72;7317220;19;131069;-65
2021/12/13 02:07:58;;;;;;;2.95;2.13;;;;;;;20.32;39.14;102479.47;7319023;19;129050;-65
2021/12/13 02:10:33;;;;;;;2.50;2.20;;;;;;;20.29;38.94;102476.09;7317492;19;129030;-65
2021/12/13 02:13:05;;;;;;;3.75;2.15;;;;;;;20.28;38.98;102474.38;7315635;19;131164;-65
2021/12/13 02:18:23;;;;;;;2.03;1.83;;;;;;;20.25;39.20;102477.59;7316951;19;130137;-66
2021/12/13 02:21:04;;;;;;;3.40;2.20;;;;;;;20.25;39.14;102480.38;7318525;19;130064;-65
2021/12/13 02:23:37;;;;;;;2.28;1.90;;;;;;;20.22;38.98;102486.34;7317278;19;130540;-65
2021/12/13 02:26:06;;;;;;;2.75;1.98;;;;;;;20.22;38.79;102489.13;7316255;19;130598;-65
2021/12/13 02:28:38;;;;;;;2.50;2.00;;;;;;;20.21;39.23;102484.66;7319116;19;128893;-65
2021/12/13 02:31:09;;;;;;;3.88;2.38;;;;;;;20.21;38.91;102481.03;7316249;19;129118;-65
2021/12/13 02:33:52;;;;;;;2.85;1.88;;;;;;;20.20;39.22;102488.50;7317973;19;131460;-65
2021/12/13 02:36:27;;;;;;;3.20;2.10;;;;;;;20.19;38.99;102492.34;7316275;19;130483;-65
2021/12/13 02:38:57;;;;;;;2.55;2.00;;;;;;;20.18;39.25;102501.78;7316843;19;130080;-65
2021/12/13 02:41:29;;;;;;;3.75;1.90;;;;;;;20.16;39.22;102497.50;7318689;19;128971;-65
2021/12/13 02:44:02;;;;;;;2.33;1.80;;;;;;;20.15;38.81;102502.22;7311615;19;130578;-65
2021/12/13 02:46:29;;;;;;;3.15;1.90;;;;;;;20.15;38.90;102502.22;7318384;19;130511;-66
2021/12/13 02:49:05;;;;;;;2.50;1.70;;;;;;;20.14;38.79;102495.78;7313574;19;129186;-65
2021/12/13 02:51:42;;;;;;;2.10;1.83;;;;;;;20.15;39.00;102496.66;7317656;19;129578;-65
2021/12/13 02:54:16;;;;;;;2.58;2.10;;;;;;;20.12;38.79;102488.75;7313531;19;130325;-65
2021/12/13 02:56:51;;;;;;;2.70;2.03;;;;;;;20.10;38.82;102488.97;7315974;19;130622;-65
2021/12/13 02:59:21;;;;;;;2.53;1.90;;;;;;;20.09;39.19;102495.59;7316630;19;131908;-65
2021/12/13 03:01:47;;;;;;;2.65;1.83;;;;;;;20.09;39.30;102497.50;7314850;19;128867;-65
2021/12/13 03:04:18;;;;;;;2.58;1.90;;;;;;;20.07;39.15;102491.31;7314603;19;131808;-65
2021/12/13 03:07:00;;;;;;;2.17;1.73;;;;;;;20.07;39.31;102494.09;7314835;19;130882;-65
2021/12/13 03:09:29;;;;;;;2.65;1.73;;;;;;;20.06;38.86;102509.91;7315240;19;128948;-65
2021/12/13 03:11:59;;;;;;;3.88;1.77;;;;;;;20.05;39.27;102497.09;7314369;19;129108;-65
2021/12/13 03:14:33;;;;;;;2.78;1.92;;;;;;;20.06;38.89;102489.63;7314586;19;130660;-65
2021/12/13 03:17:17;;;;;;;4.13;1.92;;;;;;;20.05;38.88;102482.38;7317352;19;130466;-65
2021/12/13 03:20:02;;;;;;;2.03;1.70;;;;;;;20.03;39.24;102498.41;7313961;19;129106;-65
2021/12/13 03:23:04;;;;;;;3.63;1.65;;;;;;;20.02;38.90;102507.78;7317292;19;129569;-65
2021/12/13 03:25:42;;;;;;;2.58;2.08;;;;;;;19.99;39.17;102501.59;7317927;19;130648;-65
2021/12/13 03:28:18;;;;;;;3.25;1.80;;;;;;;19.98;39.38;102508.19;7313455;19;135805;-65
2021/12/13 03:31:06;;;;;;;2.35;1.67;;;;;;;19.97;39.24;102500.94;7315391;19;128848;-65
2021/12/13 03:33:35;;;;;;;2.55;1.80;;;;;;;19.95;38.96;102505.84;7316645;19;131610;-65
2021/12/13 03:36:08;;;;;;;2.55;1.60;;;;;;;19.95;39.19;102502.22;7315241;19;130489;-65
2021/12/13 03:38:43;;;;;;;2.72;1.70;;;;;;;19.93;39.27;102499.69;7316545;19;131211;-65
2021/12/13 03:41:17;;;;;;;3.60;1.90;;;;;;;19.92;38.89;102506.28;7313149;19;129228;-65
2021/12/13 03:43:49;;;;;;;2.08;1.88;;;;;;;19.92;38.95;102511.84;7311290;19;130218;-65
2021/12/13 03:46:18;;;;;;;1.95;1.60;;;;;;;19.90;39.21;102504.78;7308665;19;132369;-65
2021/12/13 03:48:47;;;;;;;2.00;1.80;;;;;;;19.88;39.23;102513.34;7313068;19;130774;-65
2021/12/13 03:51:40;;;;;;;1.48;1.38;;;;;;;19.89;39.38;102508.63;7307448;19;130873;-65
2021/12/13 03:54:12;;;;;;;2.70;1.80;;;;;;;19.88;38.90;102510.56;7307939;19;131010;-65
2021/12/13 03:56:43;;;;;;;2.60;2.15;;;;;;;19.87;39.40;102506.09;7311915;19;130405;-65
2021/12/13 03:59:19;;;;;;;2.05;1.73;;;;;;;19.86;39.12;102509.94;7305994;19;130756;-65
2021/12/13 04:01:50;;;;;;;3.05;1.80;;;;;;;19.85;39.02;102508.22;7311101;19;128903;-64
2021/12/13 04:04:43;;;;;;;2.45;1.80;;;;;;;19.83;39.41;102499.25;7308698;19;130408;-65
2021/12/13 04:07:25;;;;;;;1.88;1.67;;;;;;;19.82;39.35;102503.09;7309232;19;132496;-65
2021/12/13 04:09:55;;;;;;;3.28;1.90;;;;;;;19.79;39.00;102504.38;7310479;19;130868;-65
2021/12/13 04:12:34;;;;;;;2.28;1.80;;;;;;;19.81;39.44;102506.97;7308115;19;129379;-65
2021/12/13 04:15:13;;;;;;;1.60;1.50;;;;;;;19.79;39.33;102500.75;7311480;19;129537;-65
2021/12/13 04:20:47;;;;;;;2.17;1.63;;;;;;;19.77;38.97;102500.13;7302793;19;131043;-65
2021/12/13 04:23:18;;;;;;;2.00;1.80;;;;;;;19.77;39.11;102503.72;7304505;19;130894;-65
2021/12/13 04:25:48;;;;;;;2.08;1.70;;;;;;;19.77;38.99;102500.97;7304146;19;129244;-65
2021/12/13 04:28:33;;;;;;;2.20;1.58;;;;;;;19.78;38.96;102499.88;7311414;19;130614;-65
2021/12/13 04:31:08;;;;;;;1.60;1.50;;;;;;;19.76;38.91;102509.53;7307023;19;131751;-65
2021/12/13 04:33:39;;;;;;;1.88;1.50;;;;;;;19.76;38.97;102503.97;7307029;19;131256;-65
2021/12/13 04:36:22;;;;;;;3.40;1.70;;;;;;;19.76;39.29;102503.97;7309290;19;128986;-65
2021/12/13 04:39:03;;;;;;;2.33;1.80;;;;;;;19.73;39.09;102508.03;7305643;19;131623;-65
2021/12/13 04:41:35;;;;;;;1.98;1.60;;;;;;;19.74;39.13;102503.31;7306713;19;131472;-65
2021/12/13 04:44:10;;;;;;;2.00;1.70;;;;;;;19.73;39.17;102499.69;7308641;19;128900;-64
2021/12/13 04:46:39;;;;;;;4.78;2.10;;;;;;;19.71;38.92;102500.97;7306714;19;130010;-65
2021/12/13 04:49:14;;;;;;;2.13;1.52;;;;;;;19.68;39.15;102497.56;7314305;19;131010;-65
2021/12/13 04:51:51;;;;;;;2.42;1.70;;;;;;;19.68;39.35;102500.34;7313165;19;130509;-65
2021/12/13 04:54:18;;;;;;;;;;;;;;;19.65;39.22;102503.56;7314237;19;129044;-65
2021/12/13 04:56:47;;;;;;;4.17;1.70;;;;;;;19.67;39.35;102501.41;7311694;19;128888;-65
2021/12/13 04:59:16;;;;;;;2.47;1.80;;;;;;;19.68;39.36;102496.72;7305680;19;131095;-65
2021/12/13 05:01:47;;;;;;;1.83;1.35;;;;;;;19.66;39.16;102502.50;7308868;19;130564;-65
2021/12/13 05:04:15;;;;;;;3.33;1.60;;;;;;;19.67;39.59;102503.31;7308659;19;128808;-65
2021/12/13 05:06:43;;;;;;;1.75;1.38;;;;;;;19.66;39.19;102508.03;7316080;19;129930;-65
2021/12/13 05:09:14;;;;;;;2.70;1.75;;;;;;;19.67;39.36;102514.44;7313924;19;130822;-65
2021/12/13 05:11:48;;;;;;;2.38;1.70;;;;;;;19.66;39.14;102510.81;7314659;19;132544;-65
2021/12/13 05:14:16;;;;;;;2.53;1.52;;;;;;;19.66;38.94;102516.38;7317677;19;130222;-65
2021/12/13 05:16:54;;;;;;;1.80;1.45;;;;;;;19.66;39.19;102521.06;7311828;19;129563;-65
2021/12/13 05:19:28;;;;;;;2.45;1.40;;;;;;;19.67;38.95;102518.09;7319956;19;130772;-65
2021/12/13 05:21:59;;;;;;;3.08;1.83;;;;;;;19.67;38.89;102519.97;7313683;19;130634;-65
2021/12/13 05:24:30;;;;;;;1.77;1.40;;;;;;;19.67;38.92;102523.63;7312999;19;130103;-65
2021/12/13 05:26:58;;;;;;;2.03;1.70;;;;;;;19.67;39.06;102523.63;7316045;19;130927;-65
2021/12/13 05:29:40;;;;;;;1.40;1.30;;;;;;;19.68;39.09;102524.47;7310510;19;130599;-65
2021/12/13 05:32:12;;;;;;;2.40;1.40;;;;;;;19.68;39.34;102524.47;7319275;19;130489;-65
2021/12/13 05:34:52;;;;;;;1.65;1.40;;;;;;;19.68;39.04;102517.00;7311775;19;129899;-65
2021/12/13 05:37:21;;;;;;;2.15;1.60;;;;;;;19.67;39.12;102518.09;7314401;19;128955;-65
2021/12/13 05:39:53;;;;;;;1.60;1.50;;;;;;;19.65;39.21;102516.56;7313938;19;130570;-65
2021/12/13 05:42:20;;;;;;;1.88;1.40;;;;;;;19.63;38.95;102527.91;7313816;19;130960;-65
2021/12/13 05:44:47;;;;;;;1.52;1.30;;;;;;;19.64;39.09;102520.41;7311630;19;130052;-65
2021/12/13 05:47:21;;;;;;;4.65;1.40;;;;;;;19.65;39.17;102514.66;7311886;19;128971;-65
2021/12/13 05:49:50;;;;;;;1.75;1.50;;;;;;;19.64;39.32;102512.94;7315260;19;130503;-65
2021/12/13 05:52:24;;;;;;;1.95;1.75;;;;;;;19.64;38.89;102510.16;7312116;19;131021;-65
2021/12/13 05:54:58;;;;;;;2.20;1.45;;;;;;;19.63;38.86;102505.69;7313632;19;129023;-65
2021/12/13 05:57:34;;;;;;;2.83;1.48;;;;;;;19.63;39.09;102508.47;7315578;19;130899;-64
2021/12/13 06:00:04;;;;;;;1.85;1.38;;;;;;;19.62;39.00;102506.75;7310358;19;133446;-65
2021/12/13 06:02:39;;;;;;;3.50;1.73;;;;;;;19.61;39.32;102505.03;7313978;19;131702;-65
2021/12/13 06:05:22;;;;;;;1.52;1.40;;;;;;;19.62;38.81;102508.69;7313929;19;129317;-65
2021/12/13 06:07:59;;;;;;;1.45;1.35;;;;;;;19.61;39.29;102506.97;7313708;19;129540;-65
2021/12/13 06:10:38;;;;;;;2.60;1.45;;;;;;;19.58;39.20;102501.84;7314334;19;131510;-65
2021/12/13 06:13:08;;;;;;;1.58;1.33;;;;;;;19.58;39.18;102507.41;7313813;19;132200;-65
2021/12/13 06:15:39;;;;;;;1.98;1.40;;;;;;;19.57;39.10;102506.53;7312262;19;130115;-65
2021/12/13 06:18:13;;;;;;;2.70;1.40;;;;;;;19.58;38.97;102518.50;7312666;19;129595;-64
2021/12/13 06:20:49;;;;;;;2.40;2.03;;;;;;;19.58;38.85;102518.50;7308395;19;130615;-65
2021/12/13 06:23:33;;;;;;;7.30;2.40;;;;;;;19.57;38.78;102511.25;7313094;19;130733;-65
2021/12/13 06:26:06;;;;;;;2.72;2.03;;;;;;;19.54;39.19;102518.09;7311728;19;129333;-65
2021/12/13 06:28:43;;;;;;;9.75;2.22;;;;;;;19.53;38.87;102525.53;7300304;19;130859;-65
2021/12/13 06:31:17;;;;;;;;;;;;;;;19.50;39.00;102525.13;7303336;19;131934;-65
2021/12/13 06:33:44;;;;;;;2.78;1.80;;;;;;;19.51;38.93;102526.84;7310818;19;130374;-65
2021/12/13 06:36:11;;;;;;;3.20;1.95;;;;;;;19.52;38.83;102531.31;7316906;19;129477;-65
2021/12/13 06:39:03;;;;;;;2.25;1.60;;;;;;;19.53;39.16;102535.81;7316043;19;129631;-65
2021/12/13 06:41:36;;;;;;;3.10;1.60;;;;;;;19.52;39.07;102525.75;7314498;19;130909;-65
2021/12/13 06:44:22;;;;;;;2.95;1.63;;;;;;;19.53;39.01;102533.88;7311913;19;130562;-65
2021/12/13 06:46:49;;;;;;;1.92;1.45;;;;;;;19.53;39.21;102533.03;7315113;19;129696;-65
2021/12/13 06:49:19;;;;;;;1.88;1.40;;;;;;;19.52;39.23;102531.31;7314929;19;128990;-65
2021/12/13 06:51:54;;;;;;;3.25;1.60;;;;;;;19.53;39.02;102533.03;7310858;19;131981;-65
2021/12/13 06:54:29;;;;;;;6.97;1.70;;;;;;;19.52;38.99;102536.88;7315586;19;130462;-65
2021/12/13 06:56:59;;;;;;;3.67;1.38;;;;;;;19.51;39.32;102532.38;7317251;19;128999;-65
2021/12/13 06:59:28;;;;;;;3.83;1.60;;;;;;;19.50;39.08;102533.44;7310748;19;138291;-64
2021/12/13 07:02:00;;;;;;;6.35;1.63;;;;;;;19.49;38.92;102540.94;7310550;19;131177;-65
2021/12/13 07:04:37;;;;;;;3.30;1.63;;;;;;;19.47;39.02;102539.41;7309571;19;131413;-65
2021/12/13 07:07:10;;;;;;;6.30;1.60;;;;;;;19.45;39.17;102536.00;7315730;19;129438;-65
2021/12/13 07:09:38;;;;;;;2.83;1.73;;;;;;;19.45;39.53;102547.09;7313702;19;131117;-65
2021/12/13 07:12:17;;;;;;;5.18;1.55;;;;;;;19.45;39.31;102549.88;7314275;19;133925;-65
2021/12/13 07:14:44;;;;;;;2.13;1.60;;;;;;;19.42;39.23;102542.00;7318320;19;130685;-66
2021/12/13 07:17:22;;;;;;;3.03;1.50;;;;;;;19.42;39.11;102539.22;7314869;19;132012;-65
2021/12/13 07:19:51;;;;;;;5.72;1.50;;;;;;;19.40;39.19;102544.13;7316177;19;129048;-65
2021/12/13 07:22:26;;;;;;;3.45;1.88;;;;;;;19.41;39.48;102551.38;7312871;19;131334;-65
2021/12/13 07:25:16;;;;;;;4.13;1.52;;;;;;;19.38;39.41;102541.56;7314540;19;133338;-64
2021/12/13 07:27:49;;;;;;;1.65;1.40;;;;;;;19.36;39.33;102547.31;7317174;19;130503;-65
2021/12/13 07:30:24;;;;;;;4.97;1.63;;;;;;;19.36;39.72;102546.47;7312884;19;129323;-65
2021/12/13 07:32:58;;;;;;;5.20;1.50;;;;;;;19.35;39.54;102547.53;7316983;19;130572;-65
2021/12/13 07:35:33;;;;;;;2.80;2.10;;;;;;;19.35;39.53;102551.16;7314517;19;130573;-65
2021/12/13 07:38:05;;;;;;;5.78;1.80;;;;;;;19.34;39.69;102549.44;7318063;19;131475;-65
2021/12/13 07:40:50;;;;;;;3.85;1.60;;;;;;;19.34;39.24;102546.66;7312726;19;129178;-65
2021/12/13 07:43:20;;;;;;;2.50;1.63;;;;;;;19.31;39.75;102549.88;7314731;19;130612;-65
2021/12/13 07:45:55;;;;;;;5.15;1.50;;;;;;;19.31;39.48;102551.78;7313927;19;131348;-65
2021/12/13 07:48:30;;;;;;;3.28;1.30;;;;;;;19.31;39.69;102551.78;7314260;19;130543;-65
2021/12/13 07:50:56;;;;;;;5.25;1.70;;;;;;;19.29;39.71;102557.56;7316277;19;130454;-65
2021/12/13 07:53:26;;;;;;;5.70;1.70;;;;;;;19.29;39.61;102563.13;7310833;19;132459;-65
2021/12/13 07:55:53;;;;;;;3.88;1.60;;;;;;;19.30;39.58;102564.81;7315571;19;131194;-65
2021/12/13 07:58:40;;;;;;;2.28;1.08;;;;;;;19.30;39.71;102564.81;7314809;19;128890;-65
2021/12/13 08:01:15;;;;;;;2.23;1.40;;;;;;;19.29;39.27;102570.56;7314241;19;128802;-65
2021/12/13 08:04:05;;;;;;;5.68;1.48;;;;;;;19.30;39.41;102564.81;7316619;19;130822;-65
2021/12/13 08:06:40;;;;;;;4.20;1.33;;;;;;;19.27;39.60;102573.56;7313858;19;130705;-65
2021/12/13 08:09:15;;;;;;;1.67;1.40;;;;;;;19.30;39.22;102569.50;7317289;19;129008;-65
2021/12/13 08:11:55;;;;;;;3.70;1.60;;;;;;;19.30;39.42;102575.94;7313853;19;129032;-65
2021/12/13 08:14:35;;;;;;;3.55;1.40;;;;;;;19.30;39.33;102577.81;7314361;19;130719;-65
2021/12/13 08:17:39;;;;;;;3.25;1.42;;;;;;;19.29;39.27;102581.66;7316366;19;130762;-65
2021/12/13 08:20:09;;;;;;;3.08;1.40;;;;;;;19.29;39.63;102581.66;7311325;19;129628;-65
2021/12/13 08:22:44;;;;;;;2.90;1.70;;;;;;;19.28;39.58;102578.06;7314222;19;129247;-65
2021/12/13 08:25:21;;;;;;;2.65;1.50;;;;;;;19.28;39.46;102586.38;7314250;19;130574;-65
2021/12/13 08:27:56;;;;;;;3.50;1.23;;;;;;;19.27;39.30;102584.66;7312729;19;131073;-65
2021/12/13 08:30:30;;;;;;;3.67;1.58;;;;;;;19.28;39.18;102582.72;7313645;19;129148;-65
2021/12/13 08:33:08;;;;;;;7.43;1.25;;;;;;;19.26;39.78;102588.50;7316046;19;128990;-65
2021/12/13 08:36:13;;;;;;;2.55;1.20;;;;;;;19.27;39.46;102584.66;7312811;19;131557;-65
2021/12/13 08:38:49;;;;;;;1.58;1.25;;;;;;;19.27;39.69;102581.88;7314008;19;130633;-65
2021/12/13 08:42:00;;;;;;;4.47;1.30;;;;;;;19.26;39.72;102582.94;7315807;19;128786;-65
2021/12/13 08:44:33;;;;;;;4.47;1.25;;;;;;;19.25;39.32;102586.78;7313213;19;130506;-65
2021/12/13 08:47:06;;;;;;;3.47;1.30;;;;;;;19.24;39.70;102579.53;7314324;19;130686;-65
2021/12/13 08:49:47;;;;;;;4.53;1.40;;;;;;;19.24;39.23;102581.47;7312696;19;130529;-65
2021/12/13 08:52:14;;;;;;;2.80;1.48;;;;;;;19.23;39.57;102583.34;7313241;19;128909;-65
2021/12/13 08:54:58;;;;;;;3.90;1.35;;;;;;;19.24;39.60;102582.31;7315973;19;128847;-65
2021/12/13 08:57:55;;;;;;;2.15;1.05;;;;;;;19.22;39.60;102588.06;7311299;19;131589;-65
2021/12/13 09:00:35;;;;;;;2.42;1.25;;;;;;;19.22;39.60;102587.19;7313508;19;130737;-65
2021/12/13 09:03:24;;;;;;;2.00;1.33;;;;;;;19.21;39.43;102591.91;7314903;19;129375;-65
2021/12/13 09:06:03;;;;;;;4.32;1.00;;;;;;;19.22;39.30;102581.66;7312196;19;130624;-65
2021/12/13 09:08:55;;;;;;;4.38;1.40;;;;;;;19.22;39.44;102592.75;7312970;19;131113;-64
2021/12/13 09:11:25;;;;;;;1.67;1.10;;;;;;;19.20;39.36;102590.16;7314253;19;131662;-65
2021/12/13 09:13:57;;;;;;;1.77;1.13;;;;;;;19.20;39.44;102584.63;7312671;19;129404;-65
2021/12/13 09:16:40;;;;;;;1.88;1.10;;;;;;;19.21;39.23;102599.34;7313529;19;129211;-65
2021/12/13 09:19:15;;;;;;;2.72;1.23;;;;;;;19.20;39.53;102600.41;7314372;19;130585;-65
2021/12/13 09:21:46;;;;;;;2.63;1.13;;;;;;;19.20;39.36;102606.81;7311951;19;131206;-65
2021/12/13 09:24:28;;;;;;;1.98;1.30;;;;;;;19.21;39.36;102604.91;7311152;19;129816;-64
2021/12/13 09:27:29;;;;;;;3.85;1.40;;;;;;;19.20;39.44;102611.53;7305845;19;128958;-64
2021/12/13 09:30:24;;;;;;;2.58;1.00;;;;;;;19.16;39.73;102610.22;7311541;19;130510;-65
2021/12/13 09:32:53;;;;;;;5.00;1.27;;;;;;;19.19;39.66;102615.34;7309927;19;131392;-65
2021/12/13 09:35:22;;;;;;;8.57;1.30;;;;;;;19.24;39.35;102621.16;7306466;19;129606;-64
2021/12/13 09:37:54;;;;;;;6.20;1.20;;;;;;;19.30;39.76;102628.66;7297634;19;129099;-65
2021/12/13 09:40:35;;;;;;;3.85;1.27;;;;;;;19.38;39.36;102628.44;7302522;19;130659;-65
2021/12/13 09:43:02;;;;;;;5.63;1.23;;;;;;;19.49;39.67;102631.66;7306213;19;131240;-64
2021/12/13 09:45:48;;;;;;;9.20;1.30;;;;;;;19.66;39.42;102635.75;7310216;19;131217;-65
2021/12/13 09:48:21;;;;;;;3.03;1.35;;;;;;;19.86;39.44;102643.25;7309709;19;132314;-64
2021/12/13 09:50:51;;;;;;;4.30;1.20;;;;;;;20.06;38.88;102648.00;7313189;19;130640;-65
2021/12/13 09:53:24;;;;;;;7.80;1.13;;;;;;;20.26;38.99;102636.84;7311167;19;130505;-65
2021/12/13 09:55:51;;;;;;;4.80;1.30;;;;;;;20.44;38.36;102638.94;7318285;19;129051;-64
2021/12/13 09:58:23;;;;;;;4.60;1.10;;;;;;;20.64;38.38;102640.84;7316784;19;130181;-65
2021/12/13 10:00:55;;;;;;;1.83;1.10;;;;;;;20.80;37.81;102639.53;7316258;19;130788;-65
2021/12/13 10:03:33;;;;;;;6.72;1.33;;;;;;;20.96;37.76;102641.81;7318326;19;131483;-66
2021/12/13 10:06:05;;;;;;;2.65;1.35;;;;;;;21.11;37.91;102646.25;7316843;19;128835;-66
2021/12/13 10:08:43;;;;;;;6.75;1.25;;;;;;;21.26;37.33;102637.63;7318660;19;129028;-65
2021/12/13 10:11:17;;;;;;;3.78;1.13;;;;;;;21.38;37.17;102638.59;7314066;19;131364;-64
2021/12/13 10:13:45;;;;;;;2.97;1.20;;;;;;;21.49;37.29;102643.50;7318756;19;130622;-64
2021/12/13 10:16:17;;;;;;;3.50;1.05;;;;;;;21.58;37.37;102648.78;7313860;19;129884;-65
2021/12/13 10:18:46;;;;;;;9.23;1.08;;;;;;;21.62;37.02;102634.19;7318257;19;129044;-65
2021/12/13 10:21:22;;;;;;;3.78;0.80;;;;;;;21.67;37.12;102639.06;7318021;19;131709;-65
2021/12/13 10:23:59;;;;;;;7.78;1.63;;;;;;;21.69;36.51;102639.69;7313895;19;130730;-64
2021/12/13 10:26:32;;;;;;;5.50;1.45;;;;;;;21.71;36.91;102636.72;7315174;19;129204;-65
2021/12/13 10:29:03;;;;;;;4.32;0.90;;;;;;;21.69;36.91;102634.13;7315481;19;129442;-65
2021/12/13 10:31:46;;;;;;;4.78;1.30;;;;;;;21.69;36.90;102650.84;7316917;19;131098;-65
2021/12/13 10:34:18;;;;;;;5.88;1.10;;;;;;;21.66;36.61;102648.53;7316571;19;130470;-65
2021/12/13 10:36:50;;;;;;;4.30;1.30;;;;;;;21.63;36.76;102651.75;7317425;19;129987;-64
2021/12/13 10:39:22;;;;;;;7.47;1.27;;;;;;;21.59;37.10;102650.50;7315516;19;135096;-66
2021/12/13 10:42:05;;;;;;;4.00;1.13;;;;;;;21.54;37.12;102645.59;7314656;19;131305;-66
2021/12/13 10:44:32;;;;;;;4.57;1.10;;;;;;;21.50;36.64;102652.69;7317370;19;130609;-65
2021/12/13 10:47:07;;;;;;;4.78;1.13;;;;;;;21.43;37.11;102644.34;7312663;19;130999;-65
2021/12/13 10:49:40;;;;;;;7.15;1.17;;;;;;;21.38;37.09;102658.09;7317703;19;129015;-65
2021/12/13 10:52:17;;;;;;;5.60;1.30;;;;;;;21.33;37.21;102658.78;7316213;19;130749;-66
2021/12/13 10:54:48;;;;;;;3.10;1.00;;;;;;;21.28;37.26;102650.22;7317540;19;130878;-65
2021/12/13 10:57:21;;;;;;;1.92;0.82;;;;;;;21.26;37.58;102657.09;7315649;19;128806;-65
2021/12/13 10:59:49;;;;;;;7.53;0.95;;;;;;;21.22;37.58;102654.75;7315497;19;128893;-65
2021/12/13 11:02:29;;;;;;;2.70;0.93;;;;;;;21.22;37.36;102646.41;7316111;19;130982;-65
2021/12/13 11:05:15;;;;;;;3.58;0.90;;;;;;;21.22;37.44;102637.22;7310693;19;130585;-65
2021/12/13 11:07:43;;;;;;;4.10;1.00;;;;;;;21.22;37.45;102640.84;7315606;19;128905;-65
2021/12/13 11:10:13;;;;;;;4.55;1.30;;;;;;;21.25;37.62;102633.13;7311265;19;130699;-64
2021/12/13 11:12:44;;;;;;;6.65;1.23;;;;;;;21.27;37.39;102642.09;7306040;19;130614;-64
2021/12/13 11:15:18;;;;;;;2.25;1.00;;;;;;;21.28;37.18;102643.81;7310334;19;131010;-64
2021/12/13 11:17:46;;;;;;;7.38;1.10;;;;;;;21.30;37.40;102636.94;7314654;19;129284;-64
2021/12/13 11:20:20;;;;;;;5.95;1.25;;;;;;;21.36;37.05;102629.63;7316351;19;129150;-64
2021/12/13 11:22:47;;;;;;;9.93;1.00;;;;;;;21.37;37.16;102625.75;7314890;19;130717;-64
2021/12/13 11:25:19;;;;;;;4.05;1.02;;;;;;;21.40;37.25;102619.75;7316185;19;130758;-65
2021/12/13 11:27:47;;;;;;;4.13;1.27;;;;;;;21.43;37.21;102624.84;7311416;19;129755;-66
2021/12/13 11:30:20;;;;;;;7.28;1.75;;;;;;;21.46;37.38;102624.41;7314290;19;131204;-66
2021/12/13 11:32:56;;;;;;;4.65;0.80;;;;;;;21.50;36.99;102620.16;7308997;19;131137;-65
2021/12/13 11:35:57;;;;;;;4.75;1.40;;;;;;;21.51;37.07;102610.72;7312537;19;128769;-65
2021/12/13 11:38:56;;;;;;;7.15;1.30;;;;;;;21.55;36.80;102607.44;7312183;19;129013;-65
2021/12/13 11:42:02;;;;;;;7.82;1.20;;;;;;;21.58;37.21;102607.00;7311082;19;129711;-65
2021/12/13 11:45:08;;;;;;;2.42;1.00;;;;;;;21.61;36.69;102610.19;7313580;19;133573;-65
2021/12/13 11:47:59;;;;;;;3.92;1.00;;;;;;;21.64;37.08;102608.91;7311571;19;134019;-65
2021/12/13 11:50:57;;;;;;;4.88;1.13;;;;;;;21.65;37.08;102617.03;7309453;19;129005;-65
2021/12/13 11:53:57;;;;;;;3.35;0.80;;;;;;;21.69;36.54;102611.84;7315815;19;129193;-65
2021/12/13 11:56:49;;;;;;;8.82;1.00;;;;;;;21.70;36.97;102612.72;7310451;19;130032;-65
2021/12/13 11:59:22;;;;;;;4.90;1.10;;;;;;;21.68;36.78;102607.34;7311477;19;131484;-65
2021/12/13 12:01:52;;;;;;;1.80;0.90;;;;;;;21.67;36.81;102614.00;7314041;19;130074;-65
2021/12/13 12:04:53;;;;;;;4.60;1.00;;;;;;;21.67;36.60;102611.22;7309240;19;131115;-64
2021/12/13 12:07:34;;;;;;;4.05;1.20;;;;;;;21.64;36.87;102615.31;7311224;19;131322;-64
2021/12/13 12:10:45;;;;;;;9.98;1.10;;;;;;;21.64;36.74;102608.91;7311705;19;130648;-64
2021/12/13 12:13:28;;;;;;;13.63;1.50;;;;;;;21.63;36.26;102609.97;7312203;19;129015;-64
2021/12/13 12:16:01;;;;;;;6.45;1.35;;;;;;;21.62;36.70;102608.28;7313730;19;129588;-65